sensor_id;sensor_type;location;lat;lon;timestamp;pressure;altitude;pressure_sealevel;temperature;humidity
48892;BME280;50130;52.150;5.236;2023-04-01T00:01:25;98838.0;;;11.97;100.0
48892;BME280;50130;52.150;5.236;2023-04-01T00:03:02;98840.0;;;11.92;100.0
48892;BME280;50130;52.150;5.236;2023-04-01T00:06:16;98845.0;;;11.95;100.0
48892;BME280;50130;52.150;5.236;2023-04-01T00:07:53;98840.0;;;11.98;100.0
48892;BME280;50130;52.150;5.236;2023-04-01T00:09:29;98849.0;;;11.98;100.0
48892;BME280;50130;52.150;5.236;2023-04-01T00:11:05;98848.0;;;11.87;100.0
48892;BME280;50130;52.150;5.236;2023-04-01T00:14:19;98851.0;;;11.88;100.0
48892;BME280;50130;52.150;5.236;2023-04-01T00:15:55;98850.0;;;11.88;100.0
48892;BME280;50130;52.150;5.236;2023-04-01T00:17:32;98852.0;;;11.86;100.0
48892;BME280;50130;52.150;5.236;2023-04-01T00:20:44;98853.0;;;11.72;100.0
48892;BME280;50130;52.150;5.236;2023-04-01T00:22:23;98850.0;;;11.74;100.0
48892;BME280;50130;52.150;5.236;2023-04-01T00:23:59;98847.0;;;11.77;100.0
48892;BME280;50130;52.150;5.236;2023-04-01T00:27:12;98855.0;;;11.8;100.0
48892;BME280;50130;52.150;5.236;2023-04-01T00:28:48;98848.0;;;11.75;100.0
48892;BME280;50130;52.150;5.236;2023-04-01T00:30:25;98853.0;;;11.76;100.0
48892;BME280;50130;52.150;5.236;2023-04-01T00:32:01;98845.0;;;11.58;100.0
48892;BME280;50130;52.150;5.236;2023-04-01T00:35:14;98851.0;;;11.66;100.0
48892;BME280;50130;52.150;5.236;2023-04-01T00:36:52;98850.0;;;11.58;100.0
48892;BME280;50130;52.150;5.236;2023-04-01T00:38:28;98852.0;;;11.56;100.0
48892;BME280;50130;52.150;5.236;2023-04-01T00:42:02;98855.0;;;11.62;100.0
48892;BME280;50130;52.150;5.236;2023-04-01T00:43:39;98855.0;;;11.64;100.0
48892;BME280;50130;52.150;5.236;2023-04-01T00:45:28;98859.0;;;11.55;100.0
48892;BME280;50130;52.150;5.236;2023-04-01T00:47:05;98856.0;;;11.59;100.0
48892;BME280;50130;52.150;5.236;2023-04-01T00:50:22;98856.0;;;11.55;100.0
48892;BME280;50130;52.150;5.236;2023-04-01T00:52:02;98864.0;;;11.63;100.0
48892;BME280;50130;52.150;5.236;2023-04-01T00:53:41;98856.0;;;11.54;100.0
48892;BME280;50130;52.150;5.236;2023-04-01T00:55:21;98860.0;;;11.45;100.0
48892;BME280;50130;52.150;5.236;2023-04-01T00:58:41;98863.0;;;11.41;100.0
48892;BME280;50130;52.150;5.236;2023-04-01T01:00:20;98857.0;;;11.42;100.0
48892;BME280;50130;52.150;5.236;2023-04-01T01:01:56;98866.0;;;11.48;100.0
48892;BME280;50130;52.150;5.236;2023-04-01T01:03:32;98865.0;;;11.56;100.0
48892;BME280;50130;52.150;5.236;2023-04-01T01:06:53;98863.0;;;11.53;100.0
48892;BME280;50130;52.150;5.236;2023-04-01T01:08:47;98867.0;;;11.4;100.0
48892;BME280;50130;52.150;5.236;2023-04-01T01:10:39;98867.0;;;11.58;100.0
48892;BME280;50130;52.150;5.236;2023-04-01T01:12:18;98866.0;;;11.43;100.0
48892;BME280;50130;52.150;5.236;2023-04-01T01:13:58;98864.0;;;11.37;100.0
48892;BME280;50130;52.150;5.236;2023-04-01T01:17:32;98866.0;;;11.41;100.0
48892;BME280;50130;52.150;5.236;2023-04-01T01:19:30;98865.0;;;11.52;100.0
48892;BME280;50130;52.150;5.236;2023-04-01T01:21:59;98875.0;;;11.53;100.0
48892;BME280;50130;52.150;5.236;2023-04-01T01:24:12;98872.0;;;11.56;100.0
48892;BME280;50130;52.150;5.236;2023-04-01T01:26:31;98870.0;;;11.67;100.0
48892;BME280;50130;52.150;5.236;2023-04-01T01:28:43;98874.0;;;11.48;100.0
48892;BME280;50130;52.150;5.236;2023-04-01T01:32:28;98866.0;;;11.45;100.0
48892;BME280;50130;52.150;5.236;2023-04-01T01:35:18;98868.0;;;11.35;100.0
48892;BME280;50130;52.150;5.236;2023-04-01T01:37:01;98872.0;;;11.31;100.0
48892;BME280;50130;52.150;5.236;2023-04-01T01:40:19;98872.0;;;11.33;100.0
48892;BME280;50130;52.150;5.236;2023-04-01T01:41:56;98872.0;;;11.38;100.0
48892;BME280;50130;52.150;5.236;2023-04-01T01:43:39;98873.0;;;11.38;100.0
48892;BME280;50130;52.150;5.236;2023-04-01T01:45:18;98870.0;;;11.28;100.0
48892;BME280;50130;52.150;5.236;2023-04-01T01:48:36;98875.0;;;11.26;100.0
48892;BME280;50130;52.150;5.236;2023-04-01T01:50:13;98870.0;;;11.31;100.0
48892;BME280;50130;52.150;5.236;2023-04-01T01:51:51;98882.0;;;11.44;100.0
48892;BME280;50130;52.150;5.236;2023-04-01T01:55:24;98880.0;;;11.45;100.0
48892;BME280;50130;52.150;5.236;2023-04-01T01:57:04;98883.0;;;11.38;100.0
48892;BME280;50130;52.150;5.236;2023-04-01T01:58:43;98880.0;;;11.24;100.0
48892;BME280;50130;52.150;5.236;2023-04-01T02:00:22;98881.0;;;11.19;100.0
48892;BME280;50130;52.150;5.236;2023-04-01T02:01:59;98880.0;;;11.18;100.0
48892;BME280;50130;52.150;5.236;2023-04-01T02:05:19;98880.0;;;11.08;100.0
48892;BME280;50130;52.150;5.236;2023-04-01T02:06:58;98882.0;;;11.15;100.0
48892;BME280;50130;52.150;5.236;2023-04-01T02:08:40;98887.0;;;11.19;100.0
48892;BME280;50130;52.150;5.236;2023-04-01T02:10:19;98889.0;;;11.12;100.0
48892;BME280;50130;52.150;5.236;2023-04-01T02:13:42;98890.0;;;11.19;100.0
48892;BME280;50130;52.150;5.236;2023-04-01T02:15:24;98896.0;;;11.18;100.0
48892;BME280;50130;52.150;5.236;2023-04-01T02:17:06;98894.0;;;11.13;100.0
48892;BME280;50130;52.150;5.236;2023-04-01T02:18:45;98896.0;;;11.15;100.0
48892;BME280;50130;52.150;5.236;2023-04-01T02:22:07;98899.0;;;11.09;100.0
48892;BME280;50130;52.150;5.236;2023-04-01T02:23:46;98898.0;;;11.2;100.0
48892;BME280;50130;52.150;5.236;2023-04-01T02:25:24;98901.0;;;11.15;100.0
48892;BME280;50130;52.150;5.236;2023-04-01T02:27:04;98899.0;;;11.1;100.0
48892;BME280;50130;52.150;5.236;2023-04-01T02:30:19;98899.0;;;11.23;100.0
48892;BME280;50130;52.150;5.236;2023-04-01T02:31:56;98909.0;;;11.09;100.0
48892;BME280;50130;52.150;5.236;2023-04-01T02:33:34;98907.0;;;11.15;100.0
48892;BME280;50130;52.150;5.236;2023-04-01T02:36:50;98905.0;;;11.07;100.0
48892;BME280;50130;52.150;5.236;2023-04-01T02:38:26;98905.0;;;11.26;100.0
48892;BME280;50130;52.150;5.236;2023-04-01T02:40:06;98903.0;;;11.1;100.0
48892;BME280;50130;52.150;5.236;2023-04-01T02:41:44;98908.0;;;11.0;100.0
48892;BME280;50130;52.150;5.236;2023-04-01T02:44:57;98905.0;;;11.06;100.0
48892;BME280;50130;52.150;5.236;2023-04-01T02:46:33;98902.0;;;11.02;100.0
48892;BME280;50130;52.150;5.236;2023-04-01T02:48:09;98903.0;;;11.03;100.0
48892;BME280;50130;52.150;5.236;2023-04-01T02:51:21;98908.0;;;10.99;100.0
48892;BME280;50130;52.150;5.236;2023-04-01T02:52:58;98910.0;;;11.16;100.0
48892;BME280;50130;52.150;5.236;2023-04-01T02:54:34;98912.0;;;11.04;100.0
48892;BME280;50130;52.150;5.236;2023-04-01T02:57:48;98917.0;;;10.95;100.0
48892;BME280;50130;52.150;5.236;2023-04-01T02:59:24;98914.0;;;11.15;100.0
48892;BME280;50130;52.150;5.236;2023-04-01T03:01:00;98920.0;;;11.15;100.0
48892;BME280;50130;52.150;5.236;2023-04-01T03:02:37;98920.0;;;11.05;100.0
48892;BME280;50130;52.150;5.236;2023-04-01T03:05:49;98928.0;;;11.05;100.0
48892;BME280;50130;52.150;5.236;2023-04-01T03:07:25;98925.0;;;10.98;100.0
48892;BME280;50130;52.150;5.236;2023-04-01T03:09:02;98935.0;;;11.0;100.0
48892;BME280;50130;52.150;5.236;2023-04-01T03:12:14;98935.0;;;11.05;100.0
48892;BME280;50130;52.150;5.236;2023-04-01T03:13:50;98936.0;;;10.97;100.0
48892;BME280;50130;52.150;5.236;2023-04-01T03:15:26;98939.0;;;10.98;100.0
48892;BME280;50130;52.150;5.236;2023-04-01T03:18:38;98946.0;;;10.95;100.0
48892;BME280;50130;52.150;5.236;2023-04-01T03:20:15;98948.0;;;11.01;100.0
48892;BME280;50130;52.150;5.236;2023-04-01T03:21:51;98951.0;;;11.06;100.0
48892;BME280;50130;52.150;5.236;2023-04-01T03:25:05;98952.0;;;11.06;100.0
48892;BME280;50130;52.150;5.236;2023-04-01T03:26:42;98957.0;;;11.11;100.0
48892;BME280;50130;52.150;5.236;2023-04-01T03:28:18;98956.0;;;11.11;100.0
48892;BME280;50130;52.150;5.236;2023-04-01T03:29:54;98959.0;;;11.15;100.0
48892;BME280;50130;52.150;5.236;2023-04-01T03:33:07;98964.0;;;11.33;100.0
48892;BME280;50130;52.150;5.236;2023-04-01T03:34:43;98967.0;;;11.23;100.0
48892;BME280;50130;52.150;5.236;2023-04-01T03:36:19;98966.0;;;11.09;100.0
48892;BME280;50130;52.150;5.236;2023-04-01T03:39:31;98972.0;;;11.12;100.0
48892;BME280;50130;52.150;5.236;2023-04-01T03:41:07;98975.0;;;11.26;100.0
48892;BME280;50130;52.150;5.236;2023-04-01T03:42:47;98975.0;;;11.17;100.0
48892;BME280;50130;52.150;5.236;2023-04-01T03:46:01;98977.0;;;11.22;100.0
48892;BME280;50130;52.150;5.236;2023-04-01T03:47:37;98976.0;;;11.35;100.0
48892;BME280;50130;52.150;5.236;2023-04-01T03:49:13;98980.0;;;11.33;100.0
48892;BME280;50130;52.150;5.236;2023-04-01T03:50:49;98982.0;;;11.39;100.0
48892;BME280;50130;52.150;5.236;2023-04-01T03:54:01;98982.0;;;11.33;100.0
48892;BME280;50130;52.150;5.236;2023-04-01T03:55:38;98988.0;;;11.41;100.0
48892;BME280;50130;52.150;5.236;2023-04-01T03:57:14;98993.0;;;11.24;100.0
48892;BME280;50130;52.150;5.236;2023-04-01T04:00:27;98994.0;;;11.2;100.0
48892;BME280;50130;52.150;5.236;2023-04-01T04:02:04;98998.0;;;11.4;100.0
48892;BME280;50130;52.150;5.236;2023-04-01T04:03:40;98995.0;;;11.37;100.0
48892;BME280;50130;52.150;5.236;2023-04-01T04:06:52;98999.0;;;11.44;100.0
48892;BME280;50130;52.150;5.236;2023-04-01T04:08:29;99005.0;;;11.41;100.0
48892;BME280;50130;52.150;5.236;2023-04-01T04:10:06;99007.0;;;11.51;100.0
48892;BME280;50130;52.150;5.236;2023-04-01T04:11:43;99013.0;;;11.56;100.0
48892;BME280;50130;52.150;5.236;2023-04-01T04:14:55;99015.0;;;11.5;100.0
48892;BME280;50130;52.150;5.236;2023-04-01T04:16:34;99020.0;;;11.48;100.0
48892;BME280;50130;52.150;5.236;2023-04-01T04:18:11;99021.0;;;11.73;100.0
48892;BME280;50130;52.150;5.236;2023-04-01T04:21:24;99022.0;;;11.44;100.0
48892;BME280;50130;52.150;5.236;2023-04-01T04:23:00;99021.0;;;11.35;100.0
48892;BME280;50130;52.150;5.236;2023-04-01T04:24:37;99033.0;;;11.44;100.0
48892;BME280;50130;52.150;5.236;2023-04-01T04:27:51;99036.0;;;11.32;100.0
48892;BME280;50130;52.150;5.236;2023-04-01T04:29:27;99037.0;;;11.22;100.0
48892;BME280;50130;52.150;5.236;2023-04-01T04:31:03;99044.0;;;11.35;100.0
48892;BME280;50130;52.150;5.236;2023-04-01T04:32:40;99047.0;;;11.37;100.0
48892;BME280;50130;52.150;5.236;2023-04-01T04:35:55;99052.0;;;11.19;100.0
48892;BME280;50130;52.150;5.236;2023-04-01T04:37:31;99051.0;;;11.36;100.0
48892;BME280;50130;52.150;5.236;2023-04-01T04:39:08;99058.0;;;11.41;100.0
48892;BME280;50130;52.150;5.236;2023-04-01T04:42:21;99058.0;;;11.25;100.0
48892;BME280;50130;52.150;5.236;2023-04-01T04:43:57;99061.0;;;11.38;100.0
48892;BME280;50130;52.150;5.236;2023-04-01T04:45:33;99064.0;;;11.33;100.0
48892;BME280;50130;52.150;5.236;2023-04-01T04:48:45;99073.0;;;11.29;100.0
48892;BME280;50130;52.150;5.236;2023-04-01T04:50:22;99073.0;;;11.17;100.0
48892;BME280;50130;52.150;5.236;2023-04-01T04:51:58;99081.0;;;11.29;100.0
48892;BME280;50130;52.150;5.236;2023-04-01T04:53:35;99086.0;;;11.25;100.0
48892;BME280;50130;52.150;5.236;2023-04-01T04:56:48;99093.0;;;11.22;100.0
48892;BME280;50130;52.150;5.236;2023-04-01T04:58:27;99093.0;;;11.23;100.0
48892;BME280;50130;52.150;5.236;2023-04-01T05:00:04;99097.0;;;11.33;100.0
48892;BME280;50130;52.150;5.236;2023-04-01T05:03:17;99106.0;;;11.16;100.0
48892;BME280;50130;52.150;5.236;2023-04-01T05:04:53;99110.0;;;11.3;100.0
48892;BME280;50130;52.150;5.236;2023-04-01T05:06:30;99112.0;;;11.48;100.0
48892;BME280;50130;52.150;5.236;2023-04-01T05:09:42;99119.0;;;11.47;100.0
48892;BME280;50130;52.150;5.236;2023-04-01T05:11:19;99120.0;;;11.52;100.0
48892;BME280;50130;52.150;5.236;2023-04-01T05:12:55;99121.0;;;11.63;100.0
48892;BME280;50130;52.150;5.236;2023-04-01T05:14:30;99130.0;;;11.61;100.0
48892;BME280;50130;52.150;5.236;2023-04-01T05:17:44;99130.0;;;11.57;100.0
48892;BME280;50130;52.150;5.236;2023-04-01T05:19:20;99132.0;;;11.7;100.0
48892;BME280;50130;52.150;5.236;2023-04-01T05:20:56;99133.0;;;11.69;100.0
48892;BME280;50130;52.150;5.236;2023-04-01T05:24:08;99141.0;;;11.72;100.0
48892;BME280;50130;52.150;5.236;2023-04-01T05:25:44;99143.0;;;11.79;100.0
48892;BME280;50130;52.150;5.236;2023-04-01T05:27:20;99143.0;;;11.83;100.0
48892;BME280;50130;52.150;5.236;2023-04-01T05:30:31;99146.0;;;11.72;100.0
48892;BME280;50130;52.150;5.236;2023-04-01T05:32:07;99151.0;;;11.62;100.0
48892;BME280;50130;52.150;5.236;2023-04-01T05:33:43;99156.0;;;11.54;100.0
48892;BME280;50130;52.150;5.236;2023-04-01T05:35:19;99155.0;;;11.67;100.0
48892;BME280;50130;52.150;5.236;2023-04-01T05:38:32;99162.0;;;11.68;100.0
48892;BME280;50130;52.150;5.236;2023-04-01T05:40:09;99168.0;;;11.39;100.0
48892;BME280;50130;52.150;5.236;2023-04-01T05:41:45;99170.0;;;11.5;100.0
48892;BME280;50130;52.150;5.236;2023-04-01T05:44:57;99174.0;;;11.45;100.0
48892;BME280;50130;52.150;5.236;2023-04-01T05:46:33;99175.0;;;11.61;100.0
48892;BME280;50130;52.150;5.236;2023-04-01T05:48:09;99178.0;;;11.61;100.0
48892;BME280;50130;52.150;5.236;2023-04-01T05:51:22;99185.0;;;11.58;100.0
48892;BME280;50130;52.150;5.236;2023-04-01T05:52:59;99184.0;;;11.48;100.0
48892;BME280;50130;52.150;5.236;2023-04-01T05:54:35;99184.0;;;11.59;100.0
48892;BME280;50130;52.150;5.236;2023-04-01T05:57:47;99184.0;;;11.46;100.0
48892;BME280;50130;52.150;5.236;2023-04-01T05:59:23;99187.0;;;11.66;100.0
48892;BME280;50130;52.150;5.236;2023-04-01T06:01:01;99189.0;;;11.54;100.0
48892;BME280;50130;52.150;5.236;2023-04-01T06:02:37;99193.0;;;11.54;100.0
48892;BME280;50130;52.150;5.236;2023-04-01T06:05:52;99193.0;;;11.5;100.0
48892;BME280;50130;52.150;5.236;2023-04-01T06:07:28;99196.0;;;11.49;100.0
48892;BME280;50130;52.150;5.236;2023-04-01T06:09:13;99200.0;;;11.5;100.0
48892;BME280;50130;52.150;5.236;2023-04-01T06:12:47;99203.0;;;11.58;100.0
48892;BME280;50130;52.150;5.236;2023-04-01T06:14:44;99211.0;;;11.67;100.0
48892;BME280;50130;52.150;5.236;2023-04-01T06:16:36;99212.0;;;11.65;100.0
48892;BME280;50130;52.150;5.236;2023-04-01T06:18:59;99212.0;;;11.55;100.0
48892;BME280;50130;52.150;5.236;2023-04-01T06:21:08;99206.0;;;11.4;100.0
48892;BME280;50130;52.150;5.236;2023-04-01T06:23:09;99218.0;;;11.51;100.0
48892;BME280;50130;52.150;5.236;2023-04-01T06:25:26;99224.0;;;11.54;100.0
48892;BME280;50130;52.150;5.236;2023-04-01T06:27:15;99230.0;;;11.69;100.0
48892;BME280;50130;52.150;5.236;2023-04-01T06:29:06;99228.0;;;11.62;100.0
48892;BME280;50130;52.150;5.236;2023-04-01T06:31:12;99234.0;;;11.52;100.0
48892;BME280;50130;52.150;5.236;2023-04-01T06:33:12;99242.0;;;11.49;100.0
48892;BME280;50130;52.150;5.236;2023-04-01T06:35:52;99241.0;;;11.41;100.0
48892;BME280;50130;52.150;5.236;2023-04-01T06:38:06;99247.0;;;11.41;100.0
48892;BME280;50130;52.150;5.236;2023-04-01T06:41:23;99255.0;;;11.37;100.0
48892;BME280;50130;52.150;5.236;2023-04-01T06:44:16;99262.0;;;11.39;100.0
48892;BME280;50130;52.150;5.236;2023-04-01T06:46:03;99260.0;;;11.4;100.0
48892;BME280;50130;52.150;5.236;2023-04-01T06:47:56;99270.0;;;11.39;100.0
48892;BME280;50130;52.150;5.236;2023-04-01T06:49:45;99265.0;;;11.54;100.0
48892;BME280;50130;52.150;5.236;2023-04-01T06:51:36;99273.0;;;11.47;100.0
48892;BME280;50130;52.150;5.236;2023-04-01T06:53:25;99277.0;;;11.62;100.0
48892;BME280;50130;52.150;5.236;2023-04-01T06:55:18;99278.0;;;11.46;100.0
48892;BME280;50130;52.150;5.236;2023-04-01T06:57:13;99280.0;;;11.62;100.0
48892;BME280;50130;52.150;5.236;2023-04-01T07:00:40;99288.0;;;11.66;100.0
48892;BME280;50130;52.150;5.236;2023-04-01T07:02:24;99288.0;;;11.6;100.0
48892;BME280;50130;52.150;5.236;2023-04-01T07:04:09;99287.0;;;11.57;100.0
48892;BME280;50130;52.150;5.236;2023-04-01T07:05:49;99295.0;;;11.59;100.0
48892;BME280;50130;52.150;5.236;2023-04-01T07:07:32;99302.0;;;11.79;100.0
48892;BME280;50130;52.150;5.236;2023-04-01T07:10:55;99303.0;;;11.85;100.0
48892;BME280;50130;52.150;5.236;2023-04-01T07:12:39;99301.0;;;11.88;100.0
48892;BME280;50130;52.150;5.236;2023-04-01T07:14:22;99308.0;;;11.84;100.0
48892;BME280;50130;52.150;5.236;2023-04-01T07:16:08;99315.0;;;11.98;100.0
48892;BME280;50130;52.150;5.236;2023-04-01T07:17:53;99316.0;;;11.8;100.0
48892;BME280;50130;52.150;5.236;2023-04-01T07:21:23;99319.0;;;11.74;100.0
48892;BME280;50130;52.150;5.236;2023-04-01T07:23:04;99321.0;;;11.82;100.0
48892;BME280;50130;52.150;5.236;2023-04-01T07:24:44;99328.0;;;11.76;100.0
48892;BME280;50130;52.150;5.236;2023-04-01T07:26:22;99325.0;;;11.67;100.0
48892;BME280;50130;52.150;5.236;2023-04-01T07:29:40;99333.0;;;11.77;100.0
48892;BME280;50130;52.150;5.236;2023-04-01T07:31:26;99337.0;;;11.75;100.0
48892;BME280;50130;52.150;5.236;2023-04-01T07:33:13;99342.0;;;11.66;100.0
48892;BME280;50130;52.150;5.236;2023-04-01T07:35:00;99344.0;;;11.76;100.0
48892;BME280;50130;52.150;5.236;2023-04-01T07:36:53;99345.0;;;11.78;100.0
48892;BME280;50130;52.150;5.236;2023-04-01T07:40:32;99348.0;;;11.88;100.0
48892;BME280;50130;52.150;5.236;2023-04-01T07:42:18;99351.0;;;12.02;100.0
48892;BME280;50130;52.150;5.236;2023-04-01T07:44:08;99351.0;;;11.83;100.0
48892;BME280;50130;52.150;5.236;2023-04-01T07:45:59;99357.0;;;11.72;100.0
48892;BME280;50130;52.150;5.236;2023-04-01T07:47:49;99359.0;;;11.58;100.0
48892;BME280;50130;52.150;5.236;2023-04-01T07:49:38;99366.0;;;11.65;100.0
48892;BME280;50130;52.150;5.236;2023-04-01T07:51:27;99365.0;;;11.72;100.0
48892;BME280;50130;52.150;5.236;2023-04-01T07:54:57;99370.0;;;11.72;100.0
48892;BME280;50130;52.150;5.236;2023-04-01T07:56:41;99372.0;;;11.57;100.0
48892;BME280;50130;52.150;5.236;2023-04-01T07:58:28;99378.0;;;11.66;100.0
48892;BME280;50130;52.150;5.236;2023-04-01T08:00:15;99380.0;;;11.72;100.0
48892;BME280;50130;52.150;5.236;2023-04-01T08:02:06;99384.0;;;11.76;100.0
48892;BME280;50130;52.150;5.236;2023-04-01T08:05:53;99389.0;;;11.6;100.0
48892;BME280;50130;52.150;5.236;2023-04-01T08:07:37;99388.0;;;11.62;100.0
48892;BME280;50130;52.150;5.236;2023-04-01T08:09:22;99391.0;;;11.79;100.0
48892;BME280;50130;52.150;5.236;2023-04-01T08:11:13;99401.0;;;11.87;100.0
48892;BME280;50130;52.150;5.236;2023-04-01T08:13:04;99399.0;;;11.89;100.0
48892;BME280;50130;52.150;5.236;2023-04-01T08:14:53;99405.0;;;11.89;100.0
48892;BME280;50130;52.150;5.236;2023-04-01T08:16:35;99409.0;;;12.03;100.0
48892;BME280;50130;52.150;5.236;2023-04-01T08:20:17;99408.0;;;11.86;100.0
48892;BME280;50130;52.150;5.236;2023-04-01T08:22:00;99416.0;;;11.86;100.0
48892;BME280;50130;52.150;5.236;2023-04-01T08:23:43;99418.0;;;11.86;100.0
48892;BME280;50130;52.150;5.236;2023-04-01T08:25:22;99417.0;;;11.89;100.0
48892;BME280;50130;52.150;5.236;2023-04-01T08:27:05;99423.0;;;11.85;100.0
48892;BME280;50130;52.150;5.236;2023-04-01T08:30:36;99422.0;;;11.87;100.0
48892;BME280;50130;52.150;5.236;2023-04-01T08:32:20;99427.0;;;12.03;100.0
48892;BME280;50130;52.150;5.236;2023-04-01T08:34:00;99433.0;;;12.06;100.0
48892;BME280;50130;52.150;5.236;2023-04-01T08:35:42;99434.0;;;12.13;100.0
48892;BME280;50130;52.150;5.236;2023-04-01T08:37:28;99438.0;;;12.15;100.0
48892;BME280;50130;52.150;5.236;2023-04-01T08:40:57;99443.0;;;12.0;100.0
48892;BME280;50130;52.150;5.236;2023-04-01T08:45:51;99450.0;;;12.05;100.0
48892;BME280;50130;52.150;5.236;2023-04-01T08:48:40;99451.0;;;11.99;100.0
48892;BME280;50130;52.150;5.236;2023-04-01T08:51:25;99455.0;;;12.02;100.0
48892;BME280;50130;52.150;5.236;2023-04-01T08:54:17;99463.0;;;12.19;100.0
48892;BME280;50130;52.150;5.236;2023-04-01T08:57:35;99467.0;;;12.24;100.0
48892;BME280;50130;52.150;5.236;2023-04-01T08:59:30;99469.0;;;12.23;100.0
48892;BME280;50130;52.150;5.236;2023-04-01T09:01:39;99476.0;;;12.08;100.0
48892;BME280;50130;52.150;5.236;2023-04-01T09:04:51;99475.0;;;12.11;100.0
48892;BME280;50130;52.150;5.236;2023-04-01T09:06:40;99482.0;;;12.05;100.0
48892;BME280;50130;52.150;5.236;2023-04-01T09:10:34;99486.0;;;12.09;100.0
48892;BME280;50130;52.150;5.236;2023-04-01T09:13:14;99488.0;;;12.21;100.0
48892;BME280;50130;52.150;5.236;2023-04-01T09:15:36;99493.0;;;12.21;100.0
48892;BME280;50130;52.150;5.236;2023-04-01T09:18:58;99494.0;;;12.21;100.0
48892;BME280;50130;52.150;5.236;2023-04-01T09:21:46;99495.0;;;12.29;100.0
48892;BME280;50130;52.150;5.236;2023-04-01T09:24:00;99496.0;;;12.25;100.0
48892;BME280;50130;52.150;5.236;2023-04-01T09:26:16;99501.0;;;12.29;100.0
48892;BME280;50130;52.150;5.236;2023-04-01T09:28:09;99505.0;;;12.17;100.0
48892;BME280;50130;52.150;5.236;2023-04-01T09:30:33;99503.0;;;12.32;100.0
48892;BME280;50130;52.150;5.236;2023-04-01T09:32:31;99505.0;;;12.14;100.0
48892;BME280;50130;52.150;5.236;2023-04-01T09:36:04;99510.0;;;12.14;100.0
48892;BME280;50130;52.150;5.236;2023-04-01T09:39:37;99517.0;;;12.09;100.0
48892;BME280;50130;52.150;5.236;2023-04-01T09:41:25;99520.0;;;12.11;100.0
48892;BME280;50130;52.150;5.236;2023-04-01T09:43:18;99524.0;;;12.05;100.0
48892;BME280;50130;52.150;5.236;2023-04-01T09:45:08;99523.0;;;12.02;100.0
48892;BME280;50130;52.150;5.236;2023-04-01T09:47:00;99531.0;;;12.14;100.0
48892;BME280;50130;52.150;5.236;2023-04-01T09:49:04;99531.0;;;12.25;100.0
48892;BME280;50130;52.150;5.236;2023-04-01T09:52:20;99534.0;;;12.39;100.0
48892;BME280;50130;52.150;5.236;2023-04-01T09:54:13;99536.0;;;12.2;100.0
48892;BME280;50130;52.150;5.236;2023-04-01T09:56:52;99541.0;;;12.14;100.0
48892;BME280;50130;52.150;5.236;2023-04-01T09:59:24;99549.0;;;11.96;100.0
48892;BME280;50130;52.150;5.236;2023-04-01T10:01:39;99549.0;;;11.98;100.0
48892;BME280;50130;52.150;5.236;2023-04-01T10:05:23;99549.0;;;12.17;100.0
48892;BME280;50130;52.150;5.236;2023-04-01T10:16:58;99560.0;;;12.99;100.0
48892;BME280;50130;52.150;5.236;2023-04-01T10:20:34;99562.0;;;12.85;100.0
48892;BME280;50130;52.150;5.236;2023-04-01T10:26:32;99574.0;;;13.13;100.0
48892;BME280;50130;52.150;5.236;2023-04-01T10:29:47;99572.0;;;13.03;100.0
48892;BME280;50130;52.150;5.236;2023-04-01T10:33:03;99575.0;;;12.92;100.0
48892;BME280;50130;52.150;5.236;2023-04-01T10:36:47;99580.0;;;12.82;100.0
48892;BME280;50130;52.150;5.236;2023-04-01T10:49:10;99592.0;;;13.0;100.0
48892;BME280;50130;52.150;5.236;2023-04-01T10:56:07;99602.0;;;13.43;100.0
48892;BME280;50130;52.150;5.236;2023-04-01T10:59:12;99588.0;;;13.36;100.0
48892;BME280;50130;52.150;5.236;2023-04-01T11:04:49;99600.0;;;13.57;100.0
48892;BME280;50130;52.150;5.236;2023-04-01T11:07:23;99603.0;;;13.47;100.0
48892;BME280;50130;52.150;5.236;2023-04-01T11:12:31;99609.0;;;13.71;100.0
48892;BME280;50130;52.150;5.236;2023-04-01T11:13:30;99609.0;;;13.71;100.0
48892;BME280;50130;52.150;5.236;2023-04-01T11:15:01;99610.0;;;13.62;99.19
48892;BME280;50130;52.150;5.236;2023-04-01T11:15:26;99610.0;;;13.62;99.19
48892;BME280;50130;52.150;5.236;2023-04-01T11:16:35;99610.0;;;13.62;99.19
48892;BME280;50130;52.150;5.236;2023-04-01T11:18:39;99613.0;;;13.56;99.16
48892;BME280;50130;52.150;5.236;2023-04-01T11:19:45;99621.0;;;13.7;99.04
48892;BME280;50130;52.150;5.236;2023-04-01T11:23:28;99622.0;;;13.64;99.46
48892;BME280;50130;52.150;5.236;2023-04-01T11:25:42;99623.0;;;13.73;100.0
48892;BME280;50130;52.150;5.236;2023-04-01T11:28:07;99626.0;;;13.72;100.0
48892;BME280;50130;52.150;5.236;2023-04-01T11:30:20;99630.0;;;13.87;100.0
48892;BME280;50130;52.150;5.236;2023-04-01T11:32:08;99634.0;;;13.97;100.0
48892;BME280;50130;52.150;5.236;2023-04-01T11:33:57;99636.0;;;13.88;98.93
48892;BME280;50130;52.150;5.236;2023-04-01T11:35:52;99641.0;;;13.99;98.5
48892;BME280;50130;52.150;5.236;2023-04-01T11:38:12;99644.0;;;13.87;95.93
48892;BME280;50130;52.150;5.236;2023-04-01T11:39:59;99642.0;;;13.76;95.15
48892;BME280;50130;52.150;5.236;2023-04-01T11:41:47;99643.0;;;13.73;97.71
48892;BME280;50130;52.150;5.236;2023-04-01T11:43:34;99648.0;;;13.64;98.46
48892;BME280;50130;52.150;5.236;2023-04-01T11:47:26;99648.0;;;13.87;98.1
48892;BME280;50130;52.150;5.236;2023-04-01T11:49:29;99650.0;;;13.87;98.99
48892;BME280;50130;52.150;5.236;2023-04-01T11:51:40;99658.0;;;13.78;98.88
48892;BME280;50130;52.150;5.236;2023-04-01T11:54:07;99659.0;;;13.5;97.86
48892;BME280;50130;52.150;5.236;2023-04-01T11:57:56;99667.0;;;13.72;97.89
48892;BME280;50130;52.150;5.236;2023-04-01T11:59:59;99665.0;;;13.51;98.34
48892;BME280;50130;52.150;5.236;2023-04-01T12:01:47;99665.0;;;13.74;99.53
48892;BME280;50130;52.150;5.236;2023-04-01T12:03:43;99671.0;;;13.83;100.0
48892;BME280;50130;52.150;5.236;2023-04-01T12:06:02;99674.0;;;13.68;99.53
48892;BME280;50130;52.150;5.236;2023-04-01T12:07:55;99678.0;;;13.61;99.23
48892;BME280;50130;52.150;5.236;2023-04-01T12:09:44;99684.0;;;13.45;98.63
48892;BME280;50130;52.150;5.236;2023-04-01T12:11:33;99686.0;;;13.47;98.55
48892;BME280;50130;52.150;5.236;2023-04-01T12:13:20;99689.0;;;13.62;100.0
48892;BME280;50130;52.150;5.236;2023-04-01T12:15:12;99695.0;;;13.72;99.19
48892;BME280;50130;52.150;5.236;2023-04-01T12:18:42;99700.0;;;13.53;99.21
48892;BME280;50130;52.150;5.236;2023-04-01T12:20:30;99702.0;;;13.37;99.44